Time;durP1;ratioP1;P1;durP2;ratioP2;P2;SDS_P1;SDS_P2;PMS_P1;PMS_P2;Temp;Humidity;BMP_temperature;BMP_pressure;BME280_temperature;BME280_humidity;BME280_pressure;Samples;Min_cycle;Max_cycle;Signal;HPM_P1;HPM_P2
2022/06/04 00:04:04;;;;;;;11.00;5.30;;;;;;;16.03;55.35;100746.78;3535258;82;99394;-82
2022/06/04 00:09:07;;;;;;;9.30;5.43;;;;;;;15.97;56.07;100750.41;3491014;83;31637;-82
2022/06/04 00:19:27;;;;;;;9.03;5.17;;;;;;;15.85;56.53;100736.97;3528217;82;99112;-81
2022/06/04 00:24:30;;;;;;;10.30;5.10;;;;;;;15.78;56.91;100737.02;3560763;81;98378;-82
2022/06/04 00:29:32;;;;;;;10.67;6.33;;;;;;;15.71;57.44;100730.12;3594675;81;99088;-82
2022/06/04 00:34:33;;;;;;;10.23;6.67;;;;;;;15.64;58.58;100730.16;3579821;81;99577;-82
2022/06/04 00:39:34;;;;;;;11.10;6.10;;;;;;;15.59;58.19;100727.19;3597656;81;26574;-83
2022/06/04 00:45:21;;;;;;;8.57;5.80;;;;;;;15.56;58.43;100731.38;3587717;81;99160;-83
2022/06/04 00:50:23;;;;;;;11.30;6.63;;;;;;;15.45;58.80;100725.88;3596419;81;98734;-83
2022/06/04 00:55:24;;;;;;;11.15;6.55;;;;;;;15.45;58.80;100725.88;3625666;79;98800;-82
2022/06/04 01:00:42;;;;;;;9.60;5.85;;;;;;;15.40;59.23;100723.52;3631150;79;99045;-82
2022/06/04 01:06:01;;;;;;;9.48;5.95;;;;;;;15.35;59.46;100718.39;3605788;79;98888;-83
2022/06/04 01:11:32;;;;;;;9.97;6.63;;;;;;;15.31;59.63;100717.57;3650087;79;98922;-83
2022/06/04 01:16:55;;;;;;;13.72;7.10;;;;;;;15.27;60.58;100713.23;3664998;79;99154;-83
2022/06/04 01:22:22;;;;;;;10.97;7.17;;;;;;;15.22;60.78;100707.52;3638737;79;99137;-83
2022/06/04 01:27:53;;;;;;;9.68;6.58;;;;;;;15.19;62.07;100697.80;3652843;80;33336;-83
2022/06/04 01:32:59;;;;;;;10.13;6.57;;;;;;;15.17;61.66;100693.27;3623123;79;98571;-82
2022/06/04 01:38:22;;;;;;;9.78;6.55;;;;;;;15.13;61.59;100682.19;3627143;79;98886;-82
2022/06/04 01:43:27;;;;;;;12.65;7.92;;;;;;;15.14;62.11;100678.80;3612594;79;98717;-83
2022/06/04 01:48:31;;;;;;;10.40;6.53;;;;;;;15.13;62.04;100671.69;3656843;79;99076;-83
2022/06/04 01:53:37;;;;;;;17.62;7.15;;;;;;;15.12;62.78;100668.14;3652539;79;99076;-83
2022/06/04 01:58:55;;;;;;;10.95;6.53;;;;;;;15.12;62.85;100665.95;3622687;80;99314;-82
2022/06/04 02:04:16;;;;;;;10.35;7.25;;;;;;;15.09;63.05;100657.84;3609473;80;99068;-82
2022/06/04 02:09:18;;;;;;;11.05;6.12;;;;;;;15.06;63.06;100650.92;3608350;80;33682;-82
2022/06/04 02:14:20;;;;;;;9.03;5.70;;;;;;;15.02;62.92;100639.86;3591653;79;99309;-83
2022/06/04 02:19:22;;;;;;;9.00;5.80;;;;;;;14.99;62.72;100653.12;3608499;80;98826;-83
2022/06/04 02:24:23;;;;;;;8.48;5.40;;;;;;;14.97;63.02;100647.78;3587330;80;99244;-83
2022/06/04 02:29:24;;;;;;;8.95;5.97;;;;;;;14.97;63.37;100651.35;3592132;80;98788;-83
2022/06/04 02:34:36;;;;;;;8.70;5.33;;;;;;;14.95;62.90;100648.78;3569642;80;98737;-82
2022/06/04 02:39:42;;;;;;;10.60;4.95;;;;;;;14.92;62.90;100654.53;3592254;81;32709;-83
2022/06/04 02:44:49;;;;;;;8.80;5.50;;;;;;;14.88;62.95;100652.36;3590497;80;98841;-82
2022/06/04 02:50:15;;;;;;;;;;;;;;;14.85;63.38;100650.98;3640804;80;98707;-83
2022/06/04 02:55:21;;;;;;;8.15;4.90;;;;;;;14.78;64.18;100642.09;3614334;80;84557;-83
2022/06/04 03:00:25;;;;;;;;;;;;;;;14.72;64.47;100657.55;3635924;80;98907;-83
2022/06/04 03:05:28;;;;;;;9.18;4.67;;;;;;;14.65;66.36;100653.99;3637413;80;84407;-83
2022/06/04 03:10:34;;;;;;;9.23;5.17;;;;;;;14.58;64.54;100658.97;3639400;80;98763;-83
2022/06/04 03:15:35;;;;;;;7.70;5.03;;;;;;;14.53;65.76;100656.60;3622233;80;98613;-83
2022/06/04 03:20:36;;;;;;;8.03;5.00;;;;;;;14.43;66.25;100670.44;3631842;80;98992;-83
2022/06/04 03:25:39;;;;;;;10.13;5.37;;;;;;;14.36;67.05;100675.99;3632509;80;98803;-83
2022/06/04 03:30:40;;;;;;;9.88;5.40;;;;;;;14.30;67.13;100677.00;3616724;80;99023;-82
2022/06/04 03:35:43;;;;;;;9.00;6.20;;;;;;;14.27;67.66;100658.98;3610187;80;98839;-83
2022/06/04 03:40:44;;;;;;;8.78;5.08;;;;;;;14.27;67.80;100645.94;3632274;80;99215;-83
2022/06/04 03:45:45;;;;;;;9.00;5.83;;;;;;;14.43;67.92;100649.67;3635791;80;98652;-82
2022/06/04 03:50:49;;;;;;;9.07;5.70;;;;;;;14.58;67.40;100649.86;3638953;80;99113;-83
2022/06/04 03:55:49;;;;;;;9.63;5.63;;;;;;;14.68;67.57;100649.86;3633167;80;99050;-83
2022/06/04 04:00:50;;;;;;;8.40;5.53;;;;;;;14.92;68.03;100648.19;3659194;79;98896;-80
2022/06/04 04:05:55;;;;;;;11.30;6.53;;;;;;;15.15;68.18;100650.69;3651424;77;98845;-83
2022/06/04 04:10:56;;;;;;;10.28;5.72;;;;;;;15.37;67.72;100650.81;3653773;78;98973;-83
2022/06/04 04:15:57;;;;;;;13.73;5.83;;;;;;;15.61;67.32;100643.56;3662115;79;25807;-83
2022/06/04 04:21:05;;;;;;;9.80;5.30;;;;;;;15.80;66.53;100648.61;3658633;79;101293;-83
2022/06/04 04:26:10;;;;;;;8.38;5.17;;;;;;;15.96;66.40;100651.67;3655348;80;98921;-83
2022/06/04 04:31:23;;;;;;;8.18;5.17;;;;;;;16.10;66.05;100655.13;3648517;80;99275;-83
2022/06/04 04:36:23;;;;;;;10.85;5.85;;;;;;;16.25;65.85;100655.80;3659460;80;99232;-84
2022/06/04 04:41:24;;;;;;;8.68;5.33;;;;;;;16.38;65.60;100656.28;3653509;79;99326;-83
2022/06/04 04:46:25;;;;;;;8.33;5.20;;;;;;;16.54;65.78;100670.45;3655416;80;99178;-82
2022/06/04 04:51:28;;;;;;;9.10;5.77;;;;;;;16.69;65.43;100677.46;3637004;80;98559;-83
2022/06/04 04:56:29;;;;;;;10.10;6.08;;;;;;;16.87;65.47;100676.67;3657595;80;98677;-83
2022/06/04 05:01:30;;;;;;;10.83;5.80;;;;;;;17.05;65.11;100664.74;3648700;78;99248;-83
2022/06/04 05:06:32;;;;;;;9.67;5.53;;;;;;;17.21;64.64;100667.73;3656093;78;99370;-84
2022/06/04 05:11:33;;;;;;;9.03;5.30;;;;;;;17.33;64.78;100669.96;3655697;79;99158;-83
2022/06/04 05:16:38;;;;;;;11.60;5.90;;;;;;;17.42;64.62;100668.09;3648675;79;99075;-83
2022/06/04 05:21:47;;;;;;;7.92;4.45;;;;;;;17.48;64.23;100669.20;3659152;79;98771;-83
2022/06/04 05:26:50;;;;;;;11.25;6.05;;;;;;;17.58;64.14;100672.45;3670502;79;98693;-83
2022/06/04 05:31:53;;;;;;;9.23;5.40;;;;;;;17.65;64.03;100673.77;3655290;79;99154;-83
2022/06/04 05:36:55;;;;;;;9.08;5.78;;;;;;;17.74;64.14;100681.78;3662499;79;99069;-83
2022/06/04 05:41:56;;;;;;;9.30;5.95;;;;;;;17.94;64.20;100684.68;3649856;79;98977;-82
2022/06/04 05:46:57;;;;;;;9.60;5.13;;;;;;;18.08;63.71;100683.05;3658530;79;98875;-81
2022/06/04 05:51:58;;;;;;;8.57;5.37;;;;;;;18.27;63.64;100688.75;3647745;79;98862;-80
2022/06/04 05:56:59;;;;;;;18.90;6.40;;;;;;;18.43;63.42;100697.24;3583156;81;98857;-80
2022/06/04 06:02:01;;;;;;;15.67;6.13;;;;;;;18.61;63.18;100696.36;3566527;80;99598;-80
2022/06/04 06:07:03;;;;;;;9.60;5.20;;;;;;;18.77;62.96;100688.11;3579889;80;99077;-80
2022/06/04 06:12:05;;;;;;;9.53;5.17;;;;;;;18.97;62.50;100693.72;3568734;81;98765;-80
2022/06/04 06:17:06;;;;;;;8.53;4.85;;;;;;;19.16;62.12;100693.73;3534301;81;98874;-80
2022/06/04 06:22:07;;;;;;;7.57;4.60;;;;;;;19.40;62.00;100685.48;3554787;81;98880;-80
2022/06/04 06:27:10;;;;;;;7.40;4.50;;;;;;;19.64;61.70;100681.40;3561328;81;99113;-80
2022/06/04 06:32:11;;;;;;;7.37;4.72;;;;;;;19.97;61.72;100685.03;3479778;82;98799;-80
2022/06/04 06:37:12;;;;;;;7.40;5.00;;;;;;;20.06;61.10;100697.19;3529700;82;99169;-80
2022/06/04 06:42:13;;;;;;;7.62;4.08;;;;;;;20.35;61.06;100707.91;3486418;82;99298;-80
2022/06/04 06:47:15;;;;;;;9.37;4.60;;;;;;;20.63;60.38;100712.00;3459067;84;99311;-80
2022/06/04 06:52:16;;;;;;;7.80;4.67;;;;;;;20.88;60.31;100707.33;3446589;83;98847;-79
2022/06/04 06:57:18;;;;;;;6.30;4.08;;;;;;;20.91;58.54;100705.70;3492868;82;98439;-80
2022/06/04 07:02:19;;;;;;;6.85;4.20;;;;;;;21.03;59.50;100717.59;3479904;83;98858;-80
2022/06/04 07:07:20;;;;;;;10.05;4.30;;;;;;;21.22;59.20;100713.84;3494054;82;98831;-81
2022/06/04 07:12:22;;;;;;;8.45;4.00;;;;;;;21.59;59.41;100701.98;3484950;82;99020;-81
2022/06/04 07:17:23;;;;;;;9.05;4.15;;;;;;;21.88;58.21;100708.33;3496386;82;99120;-81
2022/06/04 07:22:23;;;;;;;7.77;4.30;;;;;;;22.26;56.32;100702.91;3495344;82;99437;-76
2022/06/04 07:27:24;;;;;;;6.85;4.20;;;;;;;22.71;54.67;100704.03;3452312;84;32563;-80
2022/06/04 07:32:26;;;;;;;9.63;3.85;;;;;;;23.10;52.88;100701.45;3477936;82;99090;-81
2022/06/04 07:37:27;;;;;;;6.87;4.42;;;;;;;23.46;52.61;100704.56;3507218;82;99295;-82
2022/06/04 07:42:28;;;;;;;8.68;4.00;;;;;;;23.95;51.85;100704.72;3488698;82;98941;-79
2022/06/04 07:47:29;;;;;;;6.05;3.47;;;;;;;24.43;52.07;100718.84;3501291;82;98939;-81
2022/06/04 07:52:30;;;;;;;4.40;3.00;;;;;;;24.78;50.79;100718.78;3474830;83;98849;-80
2022/06/04 07:57:32;;;;;;;6.58;3.37;;;;;;;24.94;49.70;100731.78;3548458;81;31754;-82
2022/06/04 08:02:33;;;;;;;5.37;3.25;;;;;;;25.06;50.05;100738.69;3614234;80;98926;-82
2022/06/04 08:07:34;;;;;;;6.25;3.58;;;;;;;25.14;49.24;100741.38;3607866;80;98871;-81
2022/06/04 08:12:47;;;;;;;8.35;3.52;;;;;;;25.13;49.34;100744.00;3611971;80;99148;-81
2022/06/04 08:17:47;;;;;;;5.03;3.45;;;;;;;25.01;46.70;100734.31;3602449;80;98783;-81
2022/06/04 08:22:49;;;;;;;6.25;3.10;;;;;;;25.05;48.60;100730.09;3604569;80;98879;-80
2022/06/04 08:27:51;;;;;;;6.45;3.12;;;;;;;25.38;48.27;100728.23;3626974;80;33774;-80
2022/06/04 08:32:52;;;;;;;9.28;3.80;;;;;;;25.96;48.01;100737.88;3610260;80;98778;-81
2022/06/04 08:37:53;;;;;;;8.53;3.70;;;;;;;26.70;48.11;100747.14;3622864;80;98690;-81
2022/06/04 08:43:13;;;;;;;7.65;3.67;;;;;;;27.22;45.92;100733.79;3611988;80;98853;-81
2022/06/04 08:48:26;;;;;;;5.25;3.42;;;;;;;27.55;45.46;100733.64;3607559;80;99187;-82
2022/06/04 08:53:29;;;;;;;6.08;3.47;;;;;;;28.00;44.84;100732.56;3596395;80;99109;-81
2022/06/04 08:59:11;;;;;;;8.20;3.85;;;;;;;27.84;43.30;100740.12;3591376;80;98799;-81
2022/06/04 09:04:51;;;;;;;6.78;3.00;;;;;;;28.25;43.44;100733.38;3555001;80;98806;-81
2022/06/04 09:09:57;;;;;;;6.12;3.22;;;;;;;28.13;42.30;100742.97;3603007;80;26179;-81
2022/06/04 09:15:12;;;;;;;7.50;3.42;;;;;;;28.08;41.00;100752.14;3590864;78;99766;-81
2022/06/04 09:20:44;;;;;;;7.15;3.27;;;;;;;27.96;40.78;100746.78;3610413;80;99122;-81
2022/06/04 09:26:17;;;;;;;6.20;3.80;;;;;;;27.98;41.38;100739.98;3599546;80;98795;-81
2022/06/04 09:31:38;;;;;;;17.50;10.93;;;;;;;28.40;41.09;100744.70;3596780;80;99052;-80
2022/06/04 09:36:45;;;;;;;8.93;4.62;;;;;;;28.43;40.46;100752.20;3613008;80;98944;-81
2022/06/04 09:41:57;;;;;;;10.00;3.58;;;;;;;28.43;40.50;100749.36;3543711;80;99732;-81
2022/06/04 09:47:12;;;;;;;10.88;4.03;;;;;;;28.44;41.10;100754.55;3566051;81;99346;-81
2022/06/04 09:52:31;;;;;;;7.30;3.52;;;;;;;28.59;41.14;100752.46;3546072;81;99060;-80
2022/06/04 09:57:37;;;;;;;7.42;3.70;;;;;;;29.07;39.98;100759.98;3516630;82;98705;-80
2022/06/04 10:02:38;;;;;;;6.70;3.65;;;;;;;29.44;39.26;100751.81;3514255;82;98645;-80
2022/06/04 10:07:39;;;;;;;5.33;3.37;;;;;;;29.89;39.94;100755.90;3499370;82;99019;-81
2022/06/04 10:18:26;;;;;;;;;;;;;;;29.91;37.86;100760.45;3557405;81;98786;-80
2022/06/04 10:23:31;;;;;;;5.65;3.10;;;;;;;30.40;35.35;100764.39;3531119;80;85832;-80
2022/06/04 10:29:06;;;;;;;5.33;3.33;;;;;;;30.50;36.29;100765.10;3554116;81;25829;-81
2022/06/04 10:34:31;;;;;;;4.95;3.12;;;;;;;30.65;36.57;100758.66;3544058;81;98578;-80
2022/06/04 10:39:52;;;;;;;7.17;3.27;;;;;;;30.98;33.68;100765.95;3549570;80;98961;-80
2022/06/04 10:45:08;;;;;;;7.80;3.62;;;;;;;30.54;35.05;100767.07;3538872;81;98711;-81
2022/06/04 10:56:17;;;;;;;5.58;3.02;;;;;;;30.90;33.80;100769.12;3556013;81;99240;-80
2022/06/04 11:01:35;;;;;;;5.75;2.87;;;;;;;30.58;34.07;100769.05;3530696;81;98861;-79
2022/06/04 11:06:41;;;;;;;4.92;2.98;;;;;;;30.72;34.46;100758.17;3503487;82;99260;-80
2022/06/04 11:11:48;;;;;;;5.53;3.10;;;;;;;30.70;33.39;100759.96;3460301;82;99118;-80
2022/06/04 11:17:03;;;;;;;6.78;3.40;;;;;;;30.98;33.10;100759.47;3606578;80;25844;-80
2022/06/04 11:22:21;;;;;;;6.25;3.58;;;;;;;31.65;33.33;100749.27;3578621;80;98599;-80
2022/06/04 11:27:40;;;;;;;4.97;2.70;;;;;;;31.91;32.38;100748.44;3584389;81;99124;-81
2022/06/04 11:32:52;;;;;;;4.97;3.08;;;;;;;31.66;32.55;100753.66;3585201;81;98726;-80
2022/06/04 11:38:08;;;;;;;5.45;3.60;;;;;;;31.71;30.44;100754.98;3571882;80;98913;-80
2022/06/04 11:43:41;;;;;;;5.33;3.20;;;;;;;32.10;32.59;100750.89;3584031;81;99630;-80
2022/06/04 11:49:21;;;;;;;10.32;3.10;;;;;;;32.27;31.15;100750.94;3589208;80;98876;-81
2022/06/04 11:54:39;;;;;;;5.10;3.10;;;;;;;32.77;31.60;100751.66;3605121;81;99040;-80
2022/06/04 12:00:00;;;;;;;4.53;3.25;;;;;;;33.13;29.99;100744.81;3608192;80;98707;-79
2022/06/04 12:05:33;;;;;;;6.65;3.02;;;;;;;32.97;29.10;100742.80;3531513;81;99202;-80
2022/06/04 12:10:57;;;;;;;6.50;2.70;;;;;;;32.49;28.71;100742.37;3534764;80;2075090;-79
2022/06/04 12:16:09;;;;;;;4.45;2.95;;;;;;;32.17;29.87;100746.77;3574648;81;99046;-79
2022/06/04 12:27:26;;;;;;;5.85;2.85;;;;;;;31.26;30.21;100742.70;3555970;80;99176;-78
2022/06/04 12:32:35;;;;;;;5.35;2.92;;;;;;;30.74;31.50;100751.98;3588582;80;99218;-80
2022/06/04 12:37:43;;;;;;;7.05;3.17;;;;;;;30.36;31.82;100751.05;3596203;80;99017;-79
2022/06/04 12:42:57;;;;;;;8.93;3.10;;;;;;;29.94;31.21;100747.45;3584541;81;98786;-79
2022/06/04 12:47:59;;;;;;;9.15;6.10;;;;;;;29.49;31.69;100747.47;3582149;81;99096;-79
2022/06/04 12:53:13;;;;;;;7.08;4.17;;;;;;;29.15;32.75;100749.13;3593710;80;98752;-79
2022/06/04 12:58:47;;;;;;;8.95;5.85;;;;;;;29.07;33.29;100750.84;3597489;80;98844;-79
2022/06/04 13:03:53;;;;;;;11.35;6.10;;;;;;;28.88;33.75;100743.09;3571949;81;98629;-80
2022/06/04 13:09:02;;;;;;;6.55;3.90;;;;;;;28.90;34.45;100746.20;3595423;80;99101;-81
2022/06/04 13:14:34;;;;;;;10.78;5.22;;;;;;;28.55;34.81;100751.87;3617105;80;99176;-81
2022/06/04 13:20:02;;;;;;;5.28;2.90;;;;;;;28.21;35.15;100751.81;3624994;80;98982;-80
2022/06/04 13:25:07;;;;;;;5.55;3.15;;;;;;;28.00;36.14;100758.03;3622246;79;99275;-79
2022/06/04 13:30:16;;;;;;;;;;;;;;;27.84;36.71;100759.17;3638168;80;98677;-80
2022/06/04 13:35:23;;;;;;;7.00;3.90;;;;;;;27.67;36.79;100760.89;3654240;79;83887;-79
2022/06/04 13:40:30;;;;;;;6.10;3.35;;;;;;;27.45;37.19;100758.40;3590609;80;98783;-79
2022/06/04 13:45:36;;;;;;;5.85;3.27;;;;;;;27.40;37.50;100759.07;3620351;80;98895;-79
2022/06/04 13:50:43;;;;;;;5.10;3.33;;;;;;;27.29;38.28;100764.50;3620060;80;98879;-79
2022/06/04 13:56:00;;;;;;;4.65;3.12;;;;;;;27.21;38.62;100775.25;3623242;80;98864;-79
2022/06/04 14:01:12;;;;;;;6.33;3.60;;;;;;;27.20;38.93;100775.86;3577092;80;98790;-79
2022/06/04 14:06:13;;;;;;;6.47;3.50;;;;;;;27.17;39.23;100781.09;3554492;81;25771;-78
2022/06/04 14:11:42;;;;;;;6.72;3.00;;;;;;;27.15;38.45;100770.88;3577115;81;98704;-79
2022/06/04 14:16:55;;;;;;;11.55;5.12;;;;;;;27.12;38.24;100763.97;3566883;81;98787;-79
2022/06/04 14:22:22;;;;;;;10.00;4.60;;;;;;;27.19;37.96;100763.00;3589707;81;98876;-80
2022/06/04 14:27:34;;;;;;;10.98;4.62;;;;;;;27.11;36.93;100763.82;3569716;81;99105;-81
2022/06/04 14:32:52;;;;;;;11.97;3.60;;;;;;;27.09;37.47;100760.06;3575729;81;98929;-80
2022/06/04 14:38:10;;;;;;;11.03;3.70;;;;;;;27.18;37.00;100764.27;3578449;81;99122;-80
2022/06/04 14:43:46;;;;;;;8.23;3.55;;;;;;;27.30;37.79;100762.47;3574784;81;99459;-79
2022/06/04 14:49:08;;;;;;;4.97;3.02;;;;;;;27.38;37.44;100760.20;3577949;81;99303;-79
2022/06/04 14:54:11;;;;;;;5.03;3.30;;;;;;;27.37;38.18;100762.87;3577358;81;26420;-79
2022/06/04 14:59:45;;;;;;;5.78;3.67;;;;;;;27.30;38.87;100756.81;3566573;80;98822;-79
2022/06/04 15:05:32;;;;;;;4.10;2.92;;;;;;;27.19;38.74;100763.00;3583532;80;98654;-79
2022/06/04 15:10:47;;;;;;;7.22;3.12;;;;;;;27.13;39.92;100758.48;3578243;80;99043;-79
2022/06/04 15:16:36;;;;;;;6.28;4.12;;;;;;;26.99;39.42;100766.27;3575663;81;99385;-78
2022/06/04 15:21:59;;;;;;;9.80;7.40;;;;;;;26.91;39.95;100758.02;3585957;81;98647;-78
2022/06/04 15:27:21;;;;;;;8.13;5.37;;;;;;;26.92;40.36;100765.98;3576610;80;99320;-78
2022/06/04 15:38:20;;;;;;;14.50;7.10;;;;;;;26.68;40.36;100763.79;3582398;81;99148;-78
2022/06/04 15:43:34;;;;;;;10.53;4.90;;;;;;;26.54;40.42;100758.03;3585872;80;99709;-79
2022/06/04 15:48:40;;;;;;;10.53;4.90;;;;;;;26.46;40.61;100760.42;3593711;81;99149;-78
2022/06/04 15:59:31;;;;;;;11.15;5.35;;;;;;;26.19;41.15;100761.15;3604818;80;98684;-78
2022/06/04 16:04:43;;;;;;;10.45;5.47;;;;;;;26.09;41.84;100759.61;3618288;80;99214;-78
2022/06/04 16:09:44;;;;;;;7.92;5.10;;;;;;;25.93;42.35;100762.81;3617285;80;98974;-78
2022/06/04 16:15:00;;;;;;;9.65;5.65;;;;;;;25.78;42.81;100764.69;3631440;80;99232;-78
2022/06/04 16:20:24;;;;;;;11.38;6.03;;;;;;;25.65;43.41;100765.47;3615840;80;98817;-78
2022/06/04 16:25:51;;;;;;;9.90;5.12;;;;;;;25.56;43.49;100771.14;3636907;80;98983;-78
2022/06/04 16:31:07;;;;;;;7.58;4.70;;;;;;;25.40;43.30;100775.69;3610941;80;98812;-78
2022/06/04 16:36:08;;;;;;;8.45;4.25;;;;;;;25.17;43.52;100774.22;3599604;80;26470;-78
2022/06/04 16:46:35;;;;;;;7.15;4.30;;;;;;;24.84;43.83;100779.50;3609855;80;98695;-78
2022/06/04 16:51:36;;;;;;;10.13;4.97;;;;;;;24.72;43.14;100773.34;3617120;80;99145;-78
2022/06/04 16:56:37;;;;;;;6.62;4.17;;;;;;;24.63;43.29;100771.30;3617884;80;99215;-78
2022/06/04 17:01:42;;;;;;;7.67;4.58;;;;;;;24.48;43.61;100774.52;3623469;80;98749;-78
2022/06/04 17:06:59;;;;;;;7.40;4.20;;;;;;;24.32;43.69;100779.59;3613810;80;98799;-78
2022/06/04 17:12:18;;;;;;;12.63;7.00;;;;;;;24.16;44.49;100782.63;3622772;80;25978;-78
2022/06/04 17:17:24;;;;;;;12.35;6.75;;;;;;;24.00;46.26;100789.28;3576002;80;99071;-78
2022/06/04 17:23:04;;;;;;;12.15;8.45;;;;;;;24.02;46.76;100788.80;3611071;80;98984;-78
2022/06/04 17:28:47;;;;;;;27.87;14.70;;;;;;;24.01;46.79;100792.85;3607898;80;99246;-78
2022/06/04 17:34:20;;;;;;;46.08;23.52;;;;;;;23.85;47.54;100795.23;3621842;80;99357;-78
2022/06/04 17:39:39;;;;;;;17.52;10.65;;;;;;;23.58;49.61;100799.86;3604108;80;99326;-78
2022/06/04 17:44:39;;;;;;;25.43;16.45;;;;;;;23.45;50.20;100792.91;3596918;80;99239;-78
2022/06/04 17:49:41;;;;;;;41.73;24.32;;;;;;;23.29;52.56;100788.87;3557925;80;99686;-78
2022/06/04 17:54:42;;;;;;;34.48;22.42;;;;;;;23.10;55.66;100785.68;3602715;80;99160;-78
2022/06/04 17:59:43;;;;;;;34.25;22.17;;;;;;;23.00;55.77;100791.67;3580838;80;98685;-78
2022/06/04 18:04:44;;;;;;;24.02;15.15;;;;;;;22.92;56.01;100791.73;3574886;80;99036;-78
2022/06/04 18:09:45;;;;;;;15.28;9.75;;;;;;;22.79;57.30;100800.19;3615846;80;99018;-78
2022/06/04 18:14:46;;;;;;;15.88;9.55;;;;;;;22.71;57.92;100802.25;3576650;80;99344;-78
2022/06/04 18:19:48;;;;;;;12.60;7.75;;;;;;;22.54;59.28;100807.21;3566226;80;99006;-79
2022/06/04 18:24:48;;;;;;;15.10;8.53;;;;;;;22.38;59.51;100814.30;3558415;81;99104;-78
2022/06/04 18:29:51;;;;;;;14.25;8.20;;;;;;;22.18;60.46;100805.92;3559320;81;98489;-78
2022/06/04 18:34:53;;;;;;;10.20;7.35;;;;;;;22.05;60.54;100821.92;3604769;79;99192;-78
2022/06/04 18:39:54;;;;;;;13.40;8.68;;;;;;;21.89;61.51;100828.39;3563405;80;98721;-78
2022/06/04 18:55:36;;;;;;;12.68;8.28;;;;;;;21.48;63.97;100917.16;3586008;81;99337;-85
2022/06/04 19:00:37;;;;;;;13.00;9.25;;;;;;;21.05;65.17;100946.02;3587792;81;98602;-91
2022/06/04 19:05:38;;;;;;;17.37;8.30;;;;;;;20.66;65.86;100966.44;3556980;81;31358;-88
2022/06/04 19:15:59;;;;;;;11.63;6.50;;;;;;;20.19;67.88;100985.20;3558810;81;98846;-88
2022/06/04 19:26:20;;;;;;;9.98;6.03;;;;;;;19.68;68.67;100999.06;3541602;80;98891;-89
2022/06/04 19:31:22;;;;;;;12.37;5.87;;;;;;;19.43;69.66;101005.67;3568117;81;99234;-89
2022/06/04 19:36:25;;;;;;;9.43;6.10;;;;;;;19.22;70.39;101009.38;3562571;80;99157;-87
2022/06/04 19:41:27;;;;;;;8.10;5.20;;;;;;;19.06;70.52;101007.20;3556300;81;98531;-86
2022/06/04 19:46:30;;;;;;;13.03;6.93;;;;;;;18.97;70.53;100991.58;3583916;80;99163;-86
2022/06/04 19:51:31;;;;;;;9.38;5.78;;;;;;;18.82;72.24;100979.65;3565267;81;99305;-84
2022/06/04 19:56:32;;;;;;;9.30;5.63;;;;;;;18.54;74.21;100958.50;3571704;81;105002;-85
2022/06/04 20:01:33;;;;;;;10.17;6.20;;;;;;;18.08;76.71;100945.70;3606909;80;99372;-84
2022/06/04 20:06:34;;;;;;;10.32;6.97;;;;;;;17.92;77.99;100921.80;3596940;80;99078;-86
2022/06/04 20:11:35;;;;;;;11.40;6.07;;;;;;;17.72;78.60;100918.03;3607746;80;26943;-86
2022/06/04 20:16:37;;;;;;;10.05;6.15;;;;;;;17.75;77.33;100931.73;3606892;79;98920;-87
2022/06/04 20:21:39;;;;;;;8.67;5.97;;;;;;;17.80;76.67;100943.22;3595651;80;99022;-87
2022/06/04 20:26:40;;;;;;;9.50;6.60;;;;;;;17.86;76.56;100960.26;3608350;80;99206;-87
2022/06/04 20:31:41;;;;;;;10.87;8.43;;;;;;;17.78;77.27;100966.53;3597534;80;99185;-87
2022/06/04 20:36:42;;;;;;;11.60;7.57;;;;;;;17.78;77.46;100971.29;3615314;80;99071;-85
2022/06/04 20:41:44;;;;;;;12.60;8.47;;;;;;;17.73;78.47;100978.69;3602420;80;26554;-85
2022/06/04 20:46:45;;;;;;;10.78;7.95;;;;;;;17.62;78.45;100981.59;3708300;78;99344;-85
2022/06/04 20:51:47;;;;;;;9.70;7.23;;;;;;;17.57;79.07;100979.24;3729388;78;99405;-85
2022/06/04 20:56:49;;;;;;;11.85;8.15;;;;;;;17.48;79.41;100988.65;3708784;77;99037;-84
2022/06/04 21:01:50;;;;;;;9.53;7.27;;;;;;;17.37;80.06;100995.45;3712966;78;98964;-85
2022/06/04 21:06:51;;;;;;;12.23;8.88;;;;;;;17.33;79.37;100996.87;3701392;78;98722;-84
2022/06/04 21:11:54;;;;;;;11.30;7.53;;;;;;;17.29;80.82;101010.63;3711897;78;27481;-84
2022/06/04 21:16:55;;;;;;;11.07;9.07;;;;;;;17.16;80.81;101013.09;3703397;78;99208;-84
2022/06/04 21:21:56;;;;;;;13.53;8.30;;;;;;;17.14;80.52;101009.14;3715046;78;99122;-84
2022/06/04 21:26:57;;;;;;;12.00;8.80;;;;;;;17.09;81.10;101017.91;3684921;78;99043;-84
2022/06/04 21:31:58;;;;;;;13.13;9.85;;;;;;;17.01;81.35;101003.86;3673492;79;99297;-84
2022/06/04 21:42:19;;;;;;;10.82;8.53;;;;;;;16.77;81.81;101000.02;3654137;79;34067;-84
2022/06/04 21:47:20;;;;;;;10.70;7.05;;;;;;;16.66;82.15;100999.86;3647415;79;99079;-84
2022/06/04 21:52:22;;;;;;;9.10;6.57;;;;;;;16.55;81.56;101003.28;3665389;78;99342;-84
2022/06/04 21:57:23;;;;;;;8.20;5.97;;;;;;;16.45;81.96;101007.70;3670888;79;99132;-84
2022/06/04 22:02:24;;;;;;;9.57;6.93;;;;;;;16.30;81.75;101007.51;3657548;79;99079;-84
2022/06/04 22:07:25;;;;;;;10.77;7.20;;;;;;;16.17;81.86;101006.95;3676698;79;98842;-84
2022/06/04 22:12:26;;;;;;;8.20;5.70;;;;;;;16.05;82.13;101005.41;3703054;79;31609;-83
2022/06/04 22:17:27;;;;;;;8.17;5.70;;;;;;;15.91;81.88;101012.36;3684570;79;99077;-84
2022/06/04 22:22:28;;;;;;;8.53;6.00;;;;;;;15.80;82.02;101007.42;3614034;80;98575;-84
2022/06/04 22:27:30;;;;;;;8.37;5.93;;;;;;;15.69;82.12;101013.56;3594566;80;99154;-84
2022/06/04 22:32:32;;;;;;;7.70;5.60;;;;;;;15.59;82.57;101029.62;3610750;80;98848;-84
2022/06/04 22:37:33;;;;;;;11.50;5.73;;;;;;;15.47;82.17;101027.85;3624206;80;98755;-84
2022/06/04 22:42:33;;;;;;;9.00;5.63;;;;;;;15.36;82.46;101024.28;3623491;80;99240;-83
2022/06/04 22:47:34;;;;;;;8.97;5.40;;;;;;;15.26;83.08;101027.80;3624492;80;98549;-84
2022/06/04 22:52:35;;;;;;;9.30;5.53;;;;;;;15.13;83.25;101038.45;3646471;80;98628;-83
2022/06/04 22:57:37;;;;;;;11.60;6.87;;;;;;;15.05;83.24;101036.84;3618621;80;98869;-84
2022/06/04 23:02:38;;;;;;;10.10;7.27;;;;;;;14.99;83.68;101027.93;3648207;80;98996;-83
2022/06/04 23:07:38;;;;;;;18.27;6.60;;;;;;;14.90;84.54;101028.30;3628670;80;98993;-84
2022/06/04 23:23:21;;;;;;;12.93;9.63;;;;;;;14.53;90.50;101025.56;3638769;80;99103;-85
2022/06/04 23:28:28;;;;;;;14.80;10.78;;;;;;;14.46;92.86;101028.31;3613332;81;99347;-86
2022/06/04 23:33:31;;;;;;;15.83;10.25;;;;;;;14.45;94.92;101030.89;3620394;80;99586;-85
2022/06/04 23:38:32;;;;;;;13.28;10.60;;;;;;;14.44;93.94;101019.61;3632086;81;99556;-84
2022/06/04 23:43:33;;;;;;;13.93;10.50;;;;;;;14.43;93.80;101027.11;3625599;80;99180;-85
2022/06/04 23:48:34;;;;;;;16.73;9.73;;;;;;;14.42;93.77;101026.11;3633565;80;99235;-84
2022/06/04 23:53:35;;;;;;;14.33;9.70;;;;;;;14.37;93.17;101032.02;3631922;81;25802;-85
2022/06/04 23:58:38;;;;;;;15.60;10.63;;;;;;;14.31;93.02;101035.76;3630184;80;98866;-86
